Allenstown, New Hampshire
Current Conditions -  °F | °C
As of 3:18 AM on Friday 19 Dec 2014 (Local Time) from KCON Reporting Station
Scattered Clouds Scattered Clouds  
Wind Chill: 21°   Ceiling: Unl
Heat Index: 30°   Visibility: 10mi
Dew Point: 22°   Wind: 12mph
Humidity: 72%   Direction: 310°NW
Pressure: 29.87"   Gusts: NA
Location:  43.1606°N, 71.4143°W
Report Text: KCON 190818Z AUTO 31010KT 10SM SCT028 M01/M06 A2987 RMK AO2 T10111056
Loading
Personal Weather Stations






























Interactive Weather Map New forecast layout! Learn more

10-Day Weather Forecast

Advertisements
Track Severe Weather on mobile